sensor_id;sensor_type;location;lat;lon;timestamp;P1;durP1;ratioP1;P2;durP2;ratioP2
46651;SDS011;32377;52.182;5.398;2024-03-25T00:01:13;28.42;;;5.13;;
46651;SDS011;32377;52.182;5.398;2024-03-25T00:03:38;23.52;;;4.15;;
46651;SDS011;32377;52.182;5.398;2024-03-25T00:06:04;19.27;;;4.07;;
46651;SDS011;32377;52.182;5.398;2024-03-25T00:08:30;22.48;;;4.72;;
46651;SDS011;32377;52.182;5.398;2024-03-25T00:10:55;29.80;;;5.53;;
46651;SDS011;32377;52.182;5.398;2024-03-25T00:13:21;28.60;;;5.88;;
46651;SDS011;32377;52.182;5.398;2024-03-25T00:15:46;32.67;;;5.35;;
46651;SDS011;32377;52.182;5.398;2024-03-25T00:18:12;24.02;;;5.68;;
46651;SDS011;32377;52.182;5.398;2024-03-25T00:20:38;39.13;;;6.38;;
46651;SDS011;32377;52.182;5.398;2024-03-25T00:23:04;23.27;;;4.25;;
46651;SDS011;32377;52.182;5.398;2024-03-25T00:25:29;23.52;;;4.40;;
46651;SDS011;32377;52.182;5.398;2024-03-25T00:27:55;24.45;;;4.22;;
46651;SDS011;32377;52.182;5.398;2024-03-25T00:30:21;37.17;;;4.78;;
46651;SDS011;32377;52.182;5.398;2024-03-25T00:32:47;27.65;;;4.32;;
46651;SDS011;32377;52.182;5.398;2024-03-25T00:35:13;26.15;;;4.18;;
46651;SDS011;32377;52.182;5.398;2024-03-25T00:37:38;33.35;;;5.45;;
46651;SDS011;32377;52.182;5.398;2024-03-25T00:40:04;32.10;;;4.32;;
46651;SDS011;32377;52.182;5.398;2024-03-25T00:42:32;18.13;;;3.83;;
46651;SDS011;32377;52.182;5.398;2024-03-25T00:44:58;32.92;;;4.70;;
46651;SDS011;32377;52.182;5.398;2024-03-25T00:47:24;40.53;;;5.35;;
46651;SDS011;32377;52.182;5.398;2024-03-25T00:49:50;27.80;;;4.25;;
46651;SDS011;32377;52.182;5.398;2024-03-25T00:52:16;31.02;;;5.05;;
46651;SDS011;32377;52.182;5.398;2024-03-25T00:54:41;29.27;;;5.72;;
46651;SDS011;32377;52.182;5.398;2024-03-25T00:57:07;30.00;;;5.68;;
46651;SDS011;32377;52.182;5.398;2024-03-25T00:59:33;24.27;;;4.65;;
46651;SDS011;32377;52.182;5.398;2024-03-25T01:01:59;36.22;;;5.35;;
46651;SDS011;32377;52.182;5.398;2024-03-25T01:04:24;29.83;;;5.35;;
46651;SDS011;32377;52.182;5.398;2024-03-25T01:06:50;28.38;;;4.03;;
46651;SDS011;32377;52.182;5.398;2024-03-25T01:09:16;36.78;;;4.88;;
46651;SDS011;32377;52.182;5.398;2024-03-25T01:11:41;25.15;;;3.95;;
46651;SDS011;32377;52.182;5.398;2024-03-25T01:14:07;29.60;;;4.40;;
46651;SDS011;32377;52.182;5.398;2024-03-25T01:16:33;32.40;;;4.60;;
46651;SDS011;32377;52.182;5.398;2024-03-25T01:18:58;30.70;;;4.30;;
46651;SDS011;32377;52.182;5.398;2024-03-25T01:21:25;27.10;;;3.38;;
46651;SDS011;32377;52.182;5.398;2024-03-25T01:23:50;38.58;;;5.28;;
46651;SDS011;32377;52.182;5.398;2024-03-25T01:26:16;28.92;;;5.07;;
46651;SDS011;32377;52.182;5.398;2024-03-25T01:28:42;36.27;;;5.00;;
46651;SDS011;32377;52.182;5.398;2024-03-25T01:31:07;24.50;;;4.53;;
46651;SDS011;32377;52.182;5.398;2024-03-25T01:33:33;26.45;;;4.25;;
46651;SDS011;32377;52.182;5.398;2024-03-25T01:36:00;27.77;;;4.63;;
46651;SDS011;32377;52.182;5.398;2024-03-25T01:38:25;33.97;;;4.65;;
46651;SDS011;32377;52.182;5.398;2024-03-25T01:40:51;36.03;;;5.75;;
46651;SDS011;32377;52.182;5.398;2024-03-25T01:43:17;28.00;;;4.65;;
46651;SDS011;32377;52.182;5.398;2024-03-25T01:45:42;31.83;;;5.80;;
46651;SDS011;32377;52.182;5.398;2024-03-25T01:48:09;32.90;;;4.57;;
46651;SDS011;32377;52.182;5.398;2024-03-25T01:50:37;35.83;;;5.28;;
46651;SDS011;32377;52.182;5.398;2024-03-25T01:53:06;29.48;;;4.93;;
46651;SDS011;32377;52.182;5.398;2024-03-25T01:55:32;35.05;;;4.82;;
46651;SDS011;32377;52.182;5.398;2024-03-25T01:58:01;34.58;;;4.80;;
46651;SDS011;32377;52.182;5.398;2024-03-25T02:00:27;25.48;;;4.25;;
46651;SDS011;32377;52.182;5.398;2024-03-25T02:02:53;26.02;;;4.22;;
46651;SDS011;32377;52.182;5.398;2024-03-25T02:05:19;33.03;;;4.30;;
46651;SDS011;32377;52.182;5.398;2024-03-25T02:07:45;36.55;;;4.70;;
46651;SDS011;32377;52.182;5.398;2024-03-25T02:10:12;32.07;;;5.00;;
46651;SDS011;32377;52.182;5.398;2024-03-25T02:12:40;33.22;;;4.65;;
46651;SDS011;32377;52.182;5.398;2024-03-25T02:15:07;34.83;;;3.90;;
46651;SDS011;32377;52.182;5.398;2024-03-25T02:17:34;31.00;;;4.53;;
46651;SDS011;32377;52.182;5.398;2024-03-25T02:20:00;15.65;;;3.65;;
46651;SDS011;32377;52.182;5.398;2024-03-25T02:22:28;32.60;;;4.28;;
46651;SDS011;32377;52.182;5.398;2024-03-25T02:24:54;32.45;;;3.90;;
46651;SDS011;32377;52.182;5.398;2024-03-25T02:27:22;25.83;;;4.78;;
46651;SDS011;32377;52.182;5.398;2024-03-25T02:29:47;41.03;;;4.75;;
46651;SDS011;32377;52.182;5.398;2024-03-25T02:32:13;32.03;;;4.82;;
46651;SDS011;32377;52.182;5.398;2024-03-25T02:34:39;32.38;;;4.55;;
46651;SDS011;32377;52.182;5.398;2024-03-25T02:37:07;30.65;;;4.47;;
46651;SDS011;32377;52.182;5.398;2024-03-25T02:39:34;25.53;;;4.53;;
46651;SDS011;32377;52.182;5.398;2024-03-25T02:42:00;27.25;;;4.35;;
46651;SDS011;32377;52.182;5.398;2024-03-25T02:44:26;31.92;;;4.70;;
46651;SDS011;32377;52.182;5.398;2024-03-25T02:46:52;20.63;;;4.75;;
46651;SDS011;32377;52.182;5.398;2024-03-25T02:49:17;33.97;;;5.78;;
46651;SDS011;32377;52.182;5.398;2024-03-25T02:51:43;28.83;;;4.10;;
46651;SDS011;32377;52.182;5.398;2024-03-25T02:54:09;34.15;;;5.05;;
46651;SDS011;32377;52.182;5.398;2024-03-25T02:56:34;35.97;;;4.85;;
46651;SDS011;32377;52.182;5.398;2024-03-25T02:59:01;31.25;;;5.15;;
46651;SDS011;32377;52.182;5.398;2024-03-25T03:01:26;30.45;;;4.68;;
46651;SDS011;32377;52.182;5.398;2024-03-25T03:03:52;39.10;;;5.05;;
46651;SDS011;32377;52.182;5.398;2024-03-25T03:06:18;32.28;;;6.38;;
46651;SDS011;32377;52.182;5.398;2024-03-25T03:08:44;36.65;;;4.80;;
46651;SDS011;32377;52.182;5.398;2024-03-25T03:11:09;40.30;;;6.20;;
46651;SDS011;32377;52.182;5.398;2024-03-25T03:13:35;30.98;;;5.47;;
46651;SDS011;32377;52.182;5.398;2024-03-25T03:16:01;26.35;;;5.30;;
46651;SDS011;32377;52.182;5.398;2024-03-25T03:18:27;28.48;;;5.35;;
46651;SDS011;32377;52.182;5.398;2024-03-25T03:20:52;31.15;;;5.00;;
46651;SDS011;32377;52.182;5.398;2024-03-25T03:23:21;27.53;;;4.97;;
46651;SDS011;32377;52.182;5.398;2024-03-25T03:25:47;30.92;;;5.80;;
46651;SDS011;32377;52.182;5.398;2024-03-25T03:28:12;29.33;;;4.80;;
46651;SDS011;32377;52.182;5.398;2024-03-25T03:30:39;31.70;;;5.55;;
46651;SDS011;32377;52.182;5.398;2024-03-25T03:33:05;40.75;;;6.82;;
46651;SDS011;32377;52.182;5.398;2024-03-25T03:35:34;33.60;;;5.03;;
46651;SDS011;32377;52.182;5.398;2024-03-25T03:38:00;33.07;;;4.97;;
46651;SDS011;32377;52.182;5.398;2024-03-25T03:40:26;25.75;;;4.70;;
46651;SDS011;32377;52.182;5.398;2024-03-25T03:42:51;34.72;;;4.80;;
46651;SDS011;32377;52.182;5.398;2024-03-25T03:45:17;34.42;;;5.68;;
46651;SDS011;32377;52.182;5.398;2024-03-25T03:47:42;36.00;;;5.38;;
46651;SDS011;32377;52.182;5.398;2024-03-25T03:50:09;30.53;;;5.10;;
46651;SDS011;32377;52.182;5.398;2024-03-25T03:52:35;25.83;;;4.40;;
46651;SDS011;32377;52.182;5.398;2024-03-25T03:55:00;33.25;;;5.57;;
46651;SDS011;32377;52.182;5.398;2024-03-25T03:57:26;35.38;;;5.43;;
46651;SDS011;32377;52.182;5.398;2024-03-25T03:59:52;24.15;;;5.07;;
46651;SDS011;32377;52.182;5.398;2024-03-25T04:02:17;27.55;;;6.28;;
46651;SDS011;32377;52.182;5.398;2024-03-25T04:04:43;21.30;;;4.20;;
46651;SDS011;32377;52.182;5.398;2024-03-25T04:07:09;26.27;;;4.38;;
46651;SDS011;32377;52.182;5.398;2024-03-25T04:09:35;20.97;;;5.00;;
46651;SDS011;32377;52.182;5.398;2024-03-25T04:12:00;29.97;;;4.67;;
46651;SDS011;32377;52.182;5.398;2024-03-25T04:14:26;29.73;;;4.77;;
46651;SDS011;32377;52.182;5.398;2024-03-25T04:16:52;23.92;;;5.40;;
46651;SDS011;32377;52.182;5.398;2024-03-25T04:19:18;25.60;;;4.27;;
46651;SDS011;32377;52.182;5.398;2024-03-25T04:21:44;33.40;;;5.18;;
46651;SDS011;32377;52.182;5.398;2024-03-25T04:24:11;27.97;;;4.70;;
46651;SDS011;32377;52.182;5.398;2024-03-25T04:26:37;26.05;;;3.92;;
46651;SDS011;32377;52.182;5.398;2024-03-25T04:29:02;26.07;;;4.33;;
46651;SDS011;32377;52.182;5.398;2024-03-25T04:31:28;23.13;;;4.77;;
46651;SDS011;32377;52.182;5.398;2024-03-25T04:33:53;26.63;;;4.67;;
46651;SDS011;32377;52.182;5.398;2024-03-25T04:36:19;22.73;;;3.83;;
46651;SDS011;32377;52.182;5.398;2024-03-25T04:38:44;23.47;;;4.20;;
46651;SDS011;32377;52.182;5.398;2024-03-25T04:41:10;21.17;;;5.30;;
46651;SDS011;32377;52.182;5.398;2024-03-25T04:43:35;24.77;;;4.30;;
46651;SDS011;32377;52.182;5.398;2024-03-25T04:46:01;19.57;;;4.00;;
46651;SDS011;32377;52.182;5.398;2024-03-25T04:48:26;24.03;;;4.87;;
46651;SDS011;32377;52.182;5.398;2024-03-25T04:50:52;14.57;;;3.90;;
46651;SDS011;32377;52.182;5.398;2024-03-25T04:53:18;25.57;;;4.17;;
46651;SDS011;32377;52.182;5.398;2024-03-25T04:58:51;23.97;;;4.10;;
46651;SDS011;32377;52.182;5.398;2024-03-25T05:01:17;20.60;;;4.70;;
46651;SDS011;32377;52.182;5.398;2024-03-25T05:03:43;18.37;;;4.70;;
46651;SDS011;32377;52.182;5.398;2024-03-25T05:06:08;22.17;;;4.53;;
46651;SDS011;32377;52.182;5.398;2024-03-25T05:08:36;27.27;;;5.23;;
46651;SDS011;32377;52.182;5.398;2024-03-25T05:11:02;17.17;;;4.57;;
46651;SDS011;32377;52.182;5.398;2024-03-25T05:13:28;19.20;;;4.47;;
46651;SDS011;32377;52.182;5.398;2024-03-25T05:15:54;28.57;;;4.40;;
46651;SDS011;32377;52.182;5.398;2024-03-25T05:18:19;27.30;;;5.00;;
46651;SDS011;32377;52.182;5.398;2024-03-25T05:20:45;26.47;;;5.37;;
46651;SDS011;32377;52.182;5.398;2024-03-25T05:23:10;26.97;;;5.20;;
46651;SDS011;32377;52.182;5.398;2024-03-25T05:25:36;26.07;;;5.13;;
46651;SDS011;32377;52.182;5.398;2024-03-25T05:28:03;20.07;;;4.80;;
46651;SDS011;32377;52.182;5.398;2024-03-25T05:30:29;29.70;;;5.03;;
46651;SDS011;32377;52.182;5.398;2024-03-25T05:32:55;24.87;;;5.10;;
46651;SDS011;32377;52.182;5.398;2024-03-25T05:35:20;29.03;;;5.57;;
46651;SDS011;32377;52.182;5.398;2024-03-25T05:37:46;26.53;;;6.17;;
46651;SDS011;32377;52.182;5.398;2024-03-25T05:40:12;24.40;;;5.07;;
46651;SDS011;32377;52.182;5.398;2024-03-25T05:42:37;30.03;;;5.50;;
46651;SDS011;32377;52.182;5.398;2024-03-25T05:45:03;26.10;;;5.10;;
46651;SDS011;32377;52.182;5.398;2024-03-25T05:47:29;35.20;;;6.07;;
46651;SDS011;32377;52.182;5.398;2024-03-25T05:49:55;21.77;;;5.57;;
46651;SDS011;32377;52.182;5.398;2024-03-25T05:52:20;28.30;;;5.93;;
46651;SDS011;32377;52.182;5.398;2024-03-25T05:54:46;32.93;;;6.53;;
46651;SDS011;32377;52.182;5.398;2024-03-25T05:57:11;34.50;;;7.60;;
46651;SDS011;32377;52.182;5.398;2024-03-25T05:59:37;26.90;;;6.80;;
46651;SDS011;32377;52.182;5.398;2024-03-25T06:02:02;43.67;;;7.53;;
46651;SDS011;32377;52.182;5.398;2024-03-25T06:04:28;37.15;;;7.93;;
46651;SDS011;32377;52.182;5.398;2024-03-25T06:06:54;33.40;;;7.28;;
46651;SDS011;32377;52.182;5.398;2024-03-25T06:09:19;30.10;;;8.00;;
46651;SDS011;32377;52.182;5.398;2024-03-25T06:11:46;32.13;;;7.18;;
46651;SDS011;32377;52.182;5.398;2024-03-25T06:14:11;27.20;;;7.60;;
46651;SDS011;32377;52.182;5.398;2024-03-25T06:16:37;35.97;;;8.80;;
46651;SDS011;32377;52.182;5.398;2024-03-25T06:19:02;37.03;;;9.70;;
46651;SDS011;32377;52.182;5.398;2024-03-25T06:21:28;33.75;;;9.07;;
46651;SDS011;32377;52.182;5.398;2024-03-25T06:23:54;41.53;;;8.43;;
46651;SDS011;32377;52.182;5.398;2024-03-25T06:26:19;37.92;;;9.13;;
46651;SDS011;32377;52.182;5.398;2024-03-25T06:28:45;42.92;;;9.63;;
46651;SDS011;32377;52.182;5.398;2024-03-25T06:31:11;31.80;;;10.50;;
46651;SDS011;32377;52.182;5.398;2024-03-25T06:34:12;35.20;;;8.40;;
46651;SDS011;32377;52.182;5.398;2024-03-25T06:36:45;40.30;;;9.25;;
46651;SDS011;32377;52.182;5.398;2024-03-25T06:39:12;43.22;;;10.30;;
46651;SDS011;32377;52.182;5.398;2024-03-25T06:41:37;36.80;;;9.05;;
46651;SDS011;32377;52.182;5.398;2024-03-25T06:44:03;34.47;;;8.98;;
46651;SDS011;32377;52.182;5.398;2024-03-25T06:46:29;40.35;;;9.15;;
46651;SDS011;32377;52.182;5.398;2024-03-25T06:48:55;40.22;;;9.25;;
46651;SDS011;32377;52.182;5.398;2024-03-25T06:51:21;37.25;;;10.20;;
46651;SDS011;32377;52.182;5.398;2024-03-25T06:53:46;39.15;;;9.27;;
46651;SDS011;32377;52.182;5.398;2024-03-25T06:56:12;29.20;;;8.75;;
46651;SDS011;32377;52.182;5.398;2024-03-25T06:58:38;36.95;;;9.38;;
46651;SDS011;32377;52.182;5.398;2024-03-25T07:01:07;29.38;;;8.43;;
46651;SDS011;32377;52.182;5.398;2024-03-25T07:03:34;30.90;;;8.80;;
46651;SDS011;32377;52.182;5.398;2024-03-25T07:06:00;39.75;;;8.75;;
46651;SDS011;32377;52.182;5.398;2024-03-25T07:08:26;28.98;;;8.40;;
46651;SDS011;32377;52.182;5.398;2024-03-25T07:10:53;35.22;;;9.85;;
46651;SDS011;32377;52.182;5.398;2024-03-25T07:13:19;35.50;;;8.63;;
46651;SDS011;32377;52.182;5.398;2024-03-25T07:15:45;35.53;;;9.57;;
46651;SDS011;32377;52.182;5.398;2024-03-25T07:18:11;33.05;;;7.63;;
46651;SDS011;32377;52.182;5.398;2024-03-25T07:20:38;34.80;;;9.23;;
46651;SDS011;32377;52.182;5.398;2024-03-25T07:23:04;29.00;;;8.13;;
46651;SDS011;32377;52.182;5.398;2024-03-25T07:25:30;30.02;;;8.00;;
46651;SDS011;32377;52.182;5.398;2024-03-25T07:27:56;28.65;;;7.82;;
46651;SDS011;32377;52.182;5.398;2024-03-25T07:30:22;40.67;;;9.65;;
46651;SDS011;32377;52.182;5.398;2024-03-25T07:32:50;33.55;;;7.75;;
46651;SDS011;32377;52.182;5.398;2024-03-25T07:35:16;32.92;;;8.05;;
46651;SDS011;32377;52.182;5.398;2024-03-25T07:37:44;31.73;;;7.47;;
46651;SDS011;32377;52.182;5.398;2024-03-25T07:40:10;31.27;;;7.88;;
46651;SDS011;32377;52.182;5.398;2024-03-25T07:42:36;32.22;;;8.63;;
46651;SDS011;32377;52.182;5.398;2024-03-25T07:45:05;37.53;;;8.35;;
46651;SDS011;32377;52.182;5.398;2024-03-25T07:47:31;39.97;;;8.02;;
46651;SDS011;32377;52.182;5.398;2024-03-25T07:49:58;40.13;;;7.97;;
46651;SDS011;32377;52.182;5.398;2024-03-25T07:52:26;39.97;;;8.57;;
46651;SDS011;32377;52.182;5.398;2024-03-25T07:54:56;30.65;;;7.28;;
46651;SDS011;32377;52.182;5.398;2024-03-25T07:57:21;29.55;;;5.97;;
46651;SDS011;32377;52.182;5.398;2024-03-25T07:59:47;33.15;;;6.75;;
46651;SDS011;32377;52.182;5.398;2024-03-25T08:02:12;34.30;;;7.15;;
46651;SDS011;32377;52.182;5.398;2024-03-25T08:04:38;30.75;;;6.63;;
46651;SDS011;32377;52.182;5.398;2024-03-25T08:07:04;35.70;;;7.35;;
46651;SDS011;32377;52.182;5.398;2024-03-25T08:09:30;31.23;;;6.20;;
46651;SDS011;32377;52.182;5.398;2024-03-25T08:11:56;24.27;;;5.20;;
46651;SDS011;32377;52.182;5.398;2024-03-25T08:14:21;31.65;;;6.18;;
46651;SDS011;32377;52.182;5.398;2024-03-25T08:16:48;33.15;;;7.00;;
46651;SDS011;32377;52.182;5.398;2024-03-25T08:19:13;21.83;;;5.38;;
46651;SDS011;32377;52.182;5.398;2024-03-25T08:21:39;26.38;;;4.43;;
46651;SDS011;32377;52.182;5.398;2024-03-25T08:24:05;29.90;;;4.90;;
46651;SDS011;32377;52.182;5.398;2024-03-25T08:26:31;28.10;;;4.30;;
46651;SDS011;32377;52.182;5.398;2024-03-25T08:28:56;23.55;;;4.65;;
46651;SDS011;32377;52.182;5.398;2024-03-25T08:31:22;27.33;;;4.88;;
46651;SDS011;32377;52.182;5.398;2024-03-25T08:33:48;21.33;;;4.15;;
46651;SDS011;32377;52.182;5.398;2024-03-25T08:36:13;29.05;;;3.53;;
46651;SDS011;32377;52.182;5.398;2024-03-25T08:38:39;17.45;;;2.70;;
46651;SDS011;32377;52.182;5.398;2024-03-25T08:41:04;22.77;;;3.65;;
46651;SDS011;32377;52.182;5.398;2024-03-25T08:43:30;20.70;;;3.30;;
46651;SDS011;32377;52.182;5.398;2024-03-25T08:45:55;17.17;;;3.00;;
46651;SDS011;32377;52.182;5.398;2024-03-25T08:48:22;18.52;;;3.13;;
46651;SDS011;32377;52.182;5.398;2024-03-25T08:50:48;20.95;;;2.80;;
46651;SDS011;32377;52.182;5.398;2024-03-25T08:53:14;22.75;;;4.30;;
46651;SDS011;32377;52.182;5.398;2024-03-25T08:55:43;18.75;;;3.00;;
46651;SDS011;32377;52.182;5.398;2024-03-25T08:58:12;19.38;;;3.00;;
46651;SDS011;32377;52.182;5.398;2024-03-25T09:00:38;21.55;;;3.05;;
46651;SDS011;32377;52.182;5.398;2024-03-25T09:03:04;15.80;;;3.20;;
46651;SDS011;32377;52.182;5.398;2024-03-25T09:05:30;15.68;;;3.38;;
46651;SDS011;32377;52.182;5.398;2024-03-25T09:07:55;18.50;;;3.20;;
46651;SDS011;32377;52.182;5.398;2024-03-25T09:10:23;17.33;;;3.08;;
46651;SDS011;32377;52.182;5.398;2024-03-25T09:13:08;11.55;;;2.70;;
46651;SDS011;32377;52.182;5.398;2024-03-25T09:15:34;24.45;;;4.18;;
46651;SDS011;32377;52.182;5.398;2024-03-25T09:17:59;17.92;;;2.95;;
46651;SDS011;32377;52.182;5.398;2024-03-25T09:20:25;14.38;;;3.38;;
46651;SDS011;32377;52.182;5.398;2024-03-25T09:22:51;23.83;;;3.90;;
46651;SDS011;32377;52.182;5.398;2024-03-25T09:25:17;16.42;;;3.42;;
46651;SDS011;32377;52.182;5.398;2024-03-25T09:27:46;14.23;;;3.05;;
46651;SDS011;32377;52.182;5.398;2024-03-25T09:30:12;18.98;;;3.17;;
46651;SDS011;32377;52.182;5.398;2024-03-25T09:32:39;17.25;;;3.65;;
46651;SDS011;32377;52.182;5.398;2024-03-25T09:35:06;15.60;;;3.13;;
46651;SDS011;32377;52.182;5.398;2024-03-25T09:37:32;18.73;;;3.38;;
46651;SDS011;32377;52.182;5.398;2024-03-25T09:39:58;19.13;;;3.50;;
46651;SDS011;32377;52.182;5.398;2024-03-25T09:42:33;15.82;;;3.13;;
46651;SDS011;32377;52.182;5.398;2024-03-25T09:45:05;16.17;;;3.28;;
46651;SDS011;32377;52.182;5.398;2024-03-25T09:47:33;20.00;;;3.50;;
46651;SDS011;32377;52.182;5.398;2024-03-25T09:49:59;21.25;;;3.85;;
46651;SDS011;32377;52.182;5.398;2024-03-25T09:52:29;17.85;;;3.55;;
46651;SDS011;32377;52.182;5.398;2024-03-25T09:54:56;20.17;;;3.72;;
46651;SDS011;32377;52.182;5.398;2024-03-25T09:57:21;22.25;;;4.18;;
46651;SDS011;32377;52.182;5.398;2024-03-25T09:59:48;20.23;;;3.50;;
46651;SDS011;32377;52.182;5.398;2024-03-25T10:02:14;14.60;;;3.33;;
46651;SDS011;32377;52.182;5.398;2024-03-25T10:04:44;22.63;;;4.38;;
46651;SDS011;32377;52.182;5.398;2024-03-25T10:07:12;13.85;;;3.40;;
46651;SDS011;32377;52.182;5.398;2024-03-25T10:09:47;20.92;;;4.10;;
46651;SDS011;32377;52.182;5.398;2024-03-25T10:12:13;17.60;;;3.85;;
46651;SDS011;32377;52.182;5.398;2024-03-25T10:14:41;10.57;;;3.42;;
46651;SDS011;32377;52.182;5.398;2024-03-25T10:17:07;16.70;;;3.55;;
46651;SDS011;32377;52.182;5.398;2024-03-25T10:19:33;19.30;;;3.85;;
46651;SDS011;32377;52.182;5.398;2024-03-25T10:22:03;18.42;;;3.33;;
46651;SDS011;32377;52.182;5.398;2024-03-25T10:24:42;16.40;;;3.65;;
46651;SDS011;32377;52.182;5.398;2024-03-25T10:27:11;20.38;;;3.95;;
46651;SDS011;32377;52.182;5.398;2024-03-25T10:29:47;16.73;;;3.70;;
46651;SDS011;32377;52.182;5.398;2024-03-25T10:32:17;17.67;;;4.03;;
46651;SDS011;32377;52.182;5.398;2024-03-25T10:34:42;15.10;;;4.10;;
46651;SDS011;32377;52.182;5.398;2024-03-25T10:37:09;15.73;;;3.70;;
46651;SDS011;32377;52.182;5.398;2024-03-25T10:39:39;13.65;;;3.88;;
46651;SDS011;32377;52.182;5.398;2024-03-25T10:42:11;13.50;;;3.38;;
46651;SDS011;32377;52.182;5.398;2024-03-25T10:44:39;19.08;;;3.53;;
46651;SDS011;32377;52.182;5.398;2024-03-25T10:47:06;17.50;;;3.72;;
46651;SDS011;32377;52.182;5.398;2024-03-25T10:52:05;12.20;;;3.70;;
46651;SDS011;32377;52.182;5.398;2024-03-25T10:54:31;18.55;;;3.78;;
46651;SDS011;32377;52.182;5.398;2024-03-25T10:58:51;14.57;;;3.70;;
46651;SDS011;32377;52.182;5.398;2024-03-25T11:01:18;16.77;;;3.70;;
46651;SDS011;32377;52.182;5.398;2024-03-25T11:03:47;19.83;;;4.93;;
46651;SDS011;32377;52.182;5.398;2024-03-25T11:06:15;16.45;;;3.90;;
46651;SDS011;32377;52.182;5.398;2024-03-25T11:08:41;19.73;;;3.83;;
46651;SDS011;32377;52.182;5.398;2024-03-25T11:11:11;15.48;;;4.05;;
46651;SDS011;32377;52.182;5.398;2024-03-25T11:13:37;14.52;;;3.60;;
46651;SDS011;32377;52.182;5.398;2024-03-25T11:16:04;11.63;;;3.05;;
46651;SDS011;32377;52.182;5.398;2024-03-25T11:18:32;16.33;;;3.58;;
46651;SDS011;32377;52.182;5.398;2024-03-25T11:21:02;13.23;;;3.50;;
46651;SDS011;32377;52.182;5.398;2024-03-25T11:23:37;15.95;;;3.70;;
46651;SDS011;32377;52.182;5.398;2024-03-25T11:26:03;10.63;;;3.67;;
46651;SDS011;32377;52.182;5.398;2024-03-25T11:28:29;9.35;;;3.55;;
46651;SDS011;32377;52.182;5.398;2024-03-25T11:30:55;12.80;;;3.75;;
46651;SDS011;32377;52.182;5.398;2024-03-25T11:33:21;16.83;;;4.28;;
46651;SDS011;32377;52.182;5.398;2024-03-25T11:35:48;15.80;;;4.28;;
46651;SDS011;32377;52.182;5.398;2024-03-25T11:38:14;15.82;;;4.40;;
46651;SDS011;32377;52.182;5.398;2024-03-25T11:40:43;8.18;;;3.70;;
46651;SDS011;32377;52.182;5.398;2024-03-25T11:43:17;17.10;;;4.20;;
46651;SDS011;32377;52.182;5.398;2024-03-25T11:45:43;12.43;;;4.70;;
46651;SDS011;32377;52.182;5.398;2024-03-25T11:48:11;14.63;;;4.07;;
46651;SDS011;32377;52.182;5.398;2024-03-25T11:50:39;9.50;;;3.55;;
46651;SDS011;32377;52.182;5.398;2024-03-25T11:53:05;8.85;;;3.45;;
46651;SDS011;32377;52.182;5.398;2024-03-25T11:55:31;13.45;;;3.85;;
46651;SDS011;32377;52.182;5.398;2024-03-25T11:57:57;12.95;;;4.22;;
46651;SDS011;32377;52.182;5.398;2024-03-25T12:00:23;15.60;;;3.90;;
46651;SDS011;32377;52.182;5.398;2024-03-25T12:02:49;11.18;;;3.88;;
46651;SDS011;32377;52.182;5.398;2024-03-25T12:05:16;13.15;;;4.10;;
46651;SDS011;32377;52.182;5.398;2024-03-25T12:07:42;14.90;;;4.95;;
46651;SDS011;32377;52.182;5.398;2024-03-25T12:10:08;13.50;;;5.18;;
46651;SDS011;32377;52.182;5.398;2024-03-25T12:12:52;14.38;;;4.47;;
46651;SDS011;32377;52.182;5.398;2024-03-25T12:15:18;18.95;;;5.13;;
46651;SDS011;32377;52.182;5.398;2024-03-25T12:17:45;14.02;;;4.80;;
46651;SDS011;32377;52.182;5.398;2024-03-25T12:20:11;12.25;;;4.40;;
46651;SDS011;32377;52.182;5.398;2024-03-25T12:22:37;10.23;;;4.50;;
46651;SDS011;32377;52.182;5.398;2024-03-25T12:25:04;13.10;;;4.43;;
46651;SDS011;32377;52.182;5.398;2024-03-25T12:27:31;16.25;;;5.07;;
46651;SDS011;32377;52.182;5.398;2024-03-25T12:30:00;13.43;;;4.80;;
46651;SDS011;32377;52.182;5.398;2024-03-25T12:35:06;24.38;;;4.97;;
46651;SDS011;32377;52.182;5.398;2024-03-25T12:37:32;19.20;;;4.53;;
46651;SDS011;32377;52.182;5.398;2024-03-25T12:39:58;14.48;;;4.38;;
46651;SDS011;32377;52.182;5.398;2024-03-25T12:42:24;11.95;;;4.70;;
46651;SDS011;32377;52.182;5.398;2024-03-25T12:44:52;14.10;;;4.45;;
46651;SDS011;32377;52.182;5.398;2024-03-25T12:47:18;12.77;;;4.95;;
46651;SDS011;32377;52.182;5.398;2024-03-25T12:49:43;11.73;;;4.95;;
46651;SDS011;32377;52.182;5.398;2024-03-25T12:52:09;10.95;;;5.05;;
46651;SDS011;32377;52.182;5.398;2024-03-25T12:54:35;11.40;;;4.88;;
46651;SDS011;32377;52.182;5.398;2024-03-25T12:57:01;15.50;;;5.13;;
46651;SDS011;32377;52.182;5.398;2024-03-25T12:59:26;11.73;;;5.47;;
46651;SDS011;32377;52.182;5.398;2024-03-25T13:01:53;11.35;;;4.85;;
46651;SDS011;32377;52.182;5.398;2024-03-25T13:04:18;17.83;;;5.50;;
46651;SDS011;32377;52.182;5.398;2024-03-25T13:06:44;11.68;;;4.57;;
46651;SDS011;32377;52.182;5.398;2024-03-25T13:09:10;12.90;;;4.78;;
46651;SDS011;32377;52.182;5.398;2024-03-25T13:11:37;13.63;;;5.05;;
46651;SDS011;32377;52.182;5.398;2024-03-25T13:14:03;9.95;;;4.70;;
46651;SDS011;32377;52.182;5.398;2024-03-25T13:16:31;9.68;;;4.65;;
46651;SDS011;32377;52.182;5.398;2024-03-25T13:18:57;9.75;;;4.82;;
46651;SDS011;32377;52.182;5.398;2024-03-25T13:21:23;10.38;;;3.97;;
46651;SDS011;32377;52.182;5.398;2024-03-25T13:23:50;9.55;;;4.05;;
46651;SDS011;32377;52.182;5.398;2024-03-25T13:26:16;8.07;;;4.32;;
46651;SDS011;32377;52.182;5.398;2024-03-25T13:28:42;15.10;;;4.07;;
46651;SDS011;32377;52.182;5.398;2024-03-25T13:31:08;9.23;;;4.00;;
46651;SDS011;32377;52.182;5.398;2024-03-25T13:33:34;11.05;;;3.70;;
46651;SDS011;32377;52.182;5.398;2024-03-25T13:35:59;7.88;;;4.18;;
46651;SDS011;32377;52.182;5.398;2024-03-25T13:38:25;11.70;;;4.13;;
46651;SDS011;32377;52.182;5.398;2024-03-25T13:40:52;9.80;;;3.88;;
46651;SDS011;32377;52.182;5.398;2024-03-25T13:43:17;12.20;;;4.45;;
46651;SDS011;32377;52.182;5.398;2024-03-25T13:45:47;13.15;;;4.20;;
46651;SDS011;32377;52.182;5.398;2024-03-25T13:48:14;13.68;;;5.55;;
46651;SDS011;32377;52.182;5.398;2024-03-25T13:50:40;11.43;;;4.22;;
46651;SDS011;32377;52.182;5.398;2024-03-25T13:53:07;8.85;;;3.97;;
46651;SDS011;32377;52.182;5.398;2024-03-25T13:55:34;12.60;;;4.63;;
46651;SDS011;32377;52.182;5.398;2024-03-25T13:57:59;12.75;;;4.57;;
46651;SDS011;32377;52.182;5.398;2024-03-25T14:00:25;11.13;;;4.30;;
46651;SDS011;32377;52.182;5.398;2024-03-25T14:02:53;8.80;;;4.13;;
46651;SDS011;32377;52.182;5.398;2024-03-25T14:05:22;7.90;;;3.33;;
46651;SDS011;32377;52.182;5.398;2024-03-25T14:07:50;9.05;;;3.85;;
46651;SDS011;32377;52.182;5.398;2024-03-25T14:10:16;10.38;;;3.80;;
46651;SDS011;32377;52.182;5.398;2024-03-25T14:12:42;10.65;;;3.67;;
46651;SDS011;32377;52.182;5.398;2024-03-25T14:15:08;10.98;;;4.53;;
46651;SDS011;32377;52.182;5.398;2024-03-25T14:17:34;8.80;;;4.35;;
46651;SDS011;32377;52.182;5.398;2024-03-25T14:20:00;9.77;;;4.10;;
46651;SDS011;32377;52.182;5.398;2024-03-25T14:22:26;6.78;;;3.85;;
46651;SDS011;32377;52.182;5.398;2024-03-25T14:24:52;5.20;;;3.72;;
46651;SDS011;32377;52.182;5.398;2024-03-25T14:27:22;9.88;;;4.55;;
46651;SDS011;32377;52.182;5.398;2024-03-25T14:29:49;13.35;;;5.13;;
46651;SDS011;32377;52.182;5.398;2024-03-25T14:32:14;7.25;;;3.67;;
46651;SDS011;32377;52.182;5.398;2024-03-25T14:34:40;10.45;;;4.05;;
46651;SDS011;32377;52.182;5.398;2024-03-25T14:37:06;9.98;;;4.15;;
46651;SDS011;32377;52.182;5.398;2024-03-25T14:39:31;9.45;;;4.30;;
46651;SDS011;32377;52.182;5.398;2024-03-25T14:41:57;12.93;;;4.20;;